Time;durP1;ratioP1;P1;durP2;ratioP2;P2;SDS_P1;SDS_P2;PMS_P1;PMS_P2;Temp;Humidity;BMP_temperature;BMP_pressure;BME280_temperature;BME280_humidity;BME280_pressure;Samples;Min_cycle;Max_cycle;Signal;HPM_P1;HPM_P2
2021/05/03 00:02:04;;;;;;;1.53;1.30;;;5.70;89.30;;;;;;5010005;28;20510;-77
2021/05/03 00:04:31;;;;;;;1.50;1.30;;;5.70;90.10;;;;;;5014445;28;20477;-77
2021/05/03 00:06:58;;;;;;;1.53;1.30;;;5.60;90.50;;;;;;5015182;28;20997;-77
2021/05/03 00:09:24;;;;;;;1.50;1.30;;;5.60;90.80;;;;;;5018324;28;20468;-77
2021/05/03 00:11:51;;;;;;;1.50;1.30;;;5.60;90.80;;;;;;5012578;28;20544;-77
2021/05/03 00:14:17;;;;;;;1.53;1.30;;;5.60;91.40;;;;;;5019813;28;20457;-77
2021/05/03 00:16:43;;;;;;;3.20;2.90;;;5.60;91.10;;;;;;5000345;28;20479;-78
2021/05/03 00:19:10;;;;;;;1.53;1.33;;;5.50;91.10;;;;;;5011110;28;20488;-77
2021/05/03 00:21:37;;;;;;;1.53;1.30;;;5.50;91.10;;;;;;5004640;28;20488;-78
2021/05/03 00:24:04;;;;;;;1.50;1.30;;;5.50;91.20;;;;;;5014608;28;20863;-78
2021/05/03 00:26:30;;;;;;;1.50;1.30;;;5.50;90.70;;;;;;5001603;28;20571;-78
2021/05/03 00:28:57;;;;;;;1.50;1.30;;;5.40;90.60;;;;;;5011052;28;21010;-78
2021/05/03 00:31:23;;;;;;;1.53;1.30;;;5.40;91.20;;;;;;4997294;28;20484;-76
2021/05/03 00:33:50;;;;;;;1.53;1.30;;;5.30;91.40;;;;;;5011711;28;20700;-77
2021/05/03 00:36:16;;;;;;;1.57;1.23;;;5.30;92.30;;;;;;5010149;28;20546;-78
2021/05/03 00:38:44;;;;;;;1.50;1.30;;;5.30;92.60;;;;;;5023944;28;20495;-77
2021/05/03 00:41:10;;;;;;;1.50;1.30;;;5.30;91.80;;;;;;5001638;28;20498;-78
2021/05/03 00:43:36;;;;;;;1.60;1.30;;;5.30;91.60;;;;;;5014464;28;20950;-77
2021/05/03 00:46:03;;;;;;;1.50;1.30;;;5.30;91.00;;;;;;5006942;28;20464;-78
2021/05/03 00:48:29;;;;;;;1.60;1.40;;;5.30;91.30;;;;;;5022314;28;20480;-78
2021/05/03 00:50:56;;;;;;;1.50;1.30;;;5.30;91.80;;;;;;4999815;28;20994;-77
2021/05/03 00:53:22;;;;;;;1.53;1.30;;;5.20;91.80;;;;;;5013898;28;20464;-78
2021/05/03 00:55:49;;;;;;;1.53;1.30;;;5.20;92.60;;;;;;5006237;28;20498;-78
2021/05/03 00:58:15;;;;;;;1.57;1.40;;;5.20;92.20;;;;;;5022979;28;20492;-78
2021/05/03 01:00:42;;;;;;;1.50;1.30;;;5.20;92.40;;;;;;5014615;28;20978;-78
2021/05/03 01:03:08;;;;;;;1.50;1.40;;;5.20;91.60;;;;;;5004063;28;20480;-78
2021/05/03 01:05:35;;;;;;;1.60;1.40;;;5.20;92.20;;;;;;5016080;28;20470;-78
2021/05/03 01:08:03;;;;;;;1.50;1.30;;;5.10;92.50;;;;;;5014785;28;20485;-78
2021/05/03 01:10:30;;;;;;;1.50;1.30;;;5.10;92.70;;;;;;5013946;28;20464;-78
2021/05/03 01:12:58;;;;;;;1.50;1.20;;;5.10;93.30;;;;;;5004110;28;20480;-78
2021/05/03 01:15:25;;;;;;;1.53;1.30;;;5.10;92.70;;;;;;5016233;28;20551;-78
2021/05/03 01:17:56;;;;;;;1.57;1.30;;;5.10;93.00;;;;;;5013114;28;20485;-78
2021/05/03 01:20:25;;;;;;;1.50;1.40;;;5.00;92.70;;;;;;5014562;28;20464;-78
2021/05/03 01:22:55;;;;;;;1.57;1.30;;;5.00;92.20;;;;;;5010463;28;20492;-76
2021/05/03 01:25:22;;;;;;;1.57;1.30;;;5.00;92.60;;;;;;5011688;28;20800;-78
2021/05/03 01:27:48;;;;;;;1.50;1.30;;;5.00;93.10;;;;;;5014959;28;21028;-78
2021/05/03 01:30:16;;;;;;;1.57;1.40;;;5.00;92.90;;;;;;5013696;28;20468;-78
2021/05/03 01:32:43;;;;;;;1.53;1.40;;;5.00;92.80;;;;;;5025453;28;20482;-79
2021/05/03 01:35:12;;;;;;;1.53;1.40;;;5.00;92.20;;;;;;5007730;28;20468;-78
2021/05/03 01:37:39;;;;;;;1.50;1.40;;;5.00;92.20;;;;;;5005950;28;20488;-82
2021/05/03 01:40:07;;;;;;;2.53;2.33;;;4.90;92.60;;;;;;5010739;28;20488;-79
2021/05/03 01:42:35;;;;;;;1.60;1.40;;;4.90;93.00;;;;;;5014300;28;20479;-79
2021/05/03 01:45:02;;;;;;;1.53;1.40;;;4.90;92.70;;;;;;5001585;28;20506;-79
2021/05/03 01:47:30;;;;;;;1.60;1.40;;;4.90;92.10;;;;;;5011895;28;20725;-79
2021/05/03 01:49:56;;;;;;;1.57;1.40;;;4.90;92.90;;;;;;5016413;28;20456;-78
2021/05/03 01:52:23;;;;;;;1.50;1.30;;;4.80;93.00;;;;;;5012666;28;20483;-78
2021/05/03 01:54:51;;;;;;;1.50;1.30;;;4.80;93.50;;;;;;5012842;28;20936;-79
2021/05/03 01:57:20;;;;;;;1.50;1.30;;;4.80;92.90;;;;;;5003034;28;20492;-80
2021/05/03 01:59:49;;;;;;;1.57;1.30;;;4.80;93.20;;;;;;5014446;28;20655;-78
2021/05/03 02:02:16;;;;;;;1.60;1.40;;;4.80;93.00;;;;;;5007671;28;20490;-78
2021/05/03 02:04:42;;;;;;;1.60;1.30;;;4.70;92.60;;;;;;5010850;28;20463;-79
2021/05/03 02:07:08;;;;;;;1.53;1.40;;;4.70;92.80;;;;;;5001679;28;20484;-79
2021/05/03 02:09:35;;;;;;;1.57;1.30;;;4.70;93.10;;;;;;5007454;28;20839;-78
2021/05/03 02:12:01;;;;;;;1.50;1.30;;;4.60;93.00;;;;;;5002767;28;20516;-79
2021/05/03 02:14:29;;;;;;;1.50;1.30;;;4.60;92.80;;;;;;5014230;28;20536;-78
2021/05/03 02:16:55;;;;;;;1.53;1.30;;;4.60;93.30;;;;;;4997837;28;20907;-78
2021/05/03 02:19:21;;;;;;;1.50;1.30;;;4.50;93.80;;;;;;5011043;28;20567;-77
2021/05/03 02:21:48;;;;;;;1.50;1.30;;;4.50;93.30;;;;;;5009730;28;20788;-76
2021/05/03 02:24:14;;;;;;;1.50;1.30;;;4.50;93.10;;;;;;5018189;28;21071;-76
2021/05/03 02:26:41;;;;;;;1.57;1.40;;;4.50;93.40;;;;;;5010515;28;20487;-77
2021/05/03 02:29:07;;;;;;;1.50;1.30;;;4.40;93.80;;;;;;5019783;28;20908;-77
2021/05/03 02:31:34;;;;;;;1.57;1.40;;;4.40;93.90;;;;;;5009633;28;20491;-77
2021/05/03 02:34:00;;;;;;;1.60;1.50;;;4.40;93.90;;;;;;5014852;28;20576;-78
2021/05/03 02:36:27;;;;;;;1.53;1.40;;;4.30;94.10;;;;;;4998884;28;20562;-77
2021/05/03 02:38:53;;;;;;;1.50;1.40;;;4.30;93.50;;;;;;5012037;28;20519;-78
2021/05/03 02:41:20;;;;;;;1.60;1.40;;;4.30;93.50;;;;;;5005618;28;20542;-76
2021/05/03 02:43:46;;;;;;;1.50;1.30;;;4.30;93.90;;;;;;5015990;28;20468;-78
2021/05/03 02:46:12;;;;;;;1.60;1.40;;;4.20;94.70;;;;;;5000730;28;20495;-78
2021/05/03 02:48:40;;;;;;;1.50;1.40;;;4.20;93.90;;;;;;5011586;28;20484;-78
2021/05/03 02:51:06;;;;;;;1.50;1.30;;;4.20;93.50;;;;;;5001733;28;20481;-77
2021/05/03 02:53:33;;;;;;;1.53;1.40;;;4.20;93.70;;;;;;5020862;28;20474;-77
2021/05/03 02:55:59;;;;;;;1.50;1.30;;;4.10;93.80;;;;;;5003301;28;20868;-77
2021/05/03 02:58:25;;;;;;;1.57;1.40;;;4.10;93.50;;;;;;5019010;28;20500;-78
2021/05/03 03:00:51;;;;;;;1.50;1.40;;;4.10;93.80;;;;;;4999308;28;20476;-79
2021/05/03 03:03:18;;;;;;;1.50;1.40;;;4.10;94.10;;;;;;5026217;28;20955;-77
2021/05/03 03:05:45;;;;;;;1.50;1.40;;;4.10;94.00;;;;;;5012585;28;20674;-78
2021/05/03 03:08:12;;;;;;;1.50;1.40;;;4.10;94.50;;;;;;5002094;28;20499;-77
2021/05/03 03:10:38;;;;;;;1.50;1.30;;;4.10;94.50;;;;;;5007635;28;20468;-78
2021/05/03 03:13:05;;;;;;;1.53;1.40;;;4.10;94.40;;;;;;5014272;28;20478;-79
2021/05/03 03:15:34;;;;;;;1.50;1.40;;;4.10;94.30;;;;;;5013628;28;20475;-77
2021/05/03 03:18:01;;;;;;;1.57;1.40;;;4.00;94.50;;;;;;5015061;28;20912;-78
2021/05/03 03:20:27;;;;;;;1.57;1.40;;;4.00;94.10;;;;;;5004606;28;20468;-78
2021/05/03 03:22:55;;;;;;;1.50;1.37;;;4.00;94.60;;;;;;5001111;28;20488;-77
2021/05/03 03:25:22;;;;;;;1.60;1.40;;;4.00;94.50;;;;;;5011171;28;20480;-78
2021/05/03 03:27:49;;;;;;;1.50;1.40;;;4.00;94.30;;;;;;5013879;28;20491;-78
2021/05/03 03:30:17;;;;;;;1.53;1.40;;;4.00;94.00;;;;;;5011558;28;20464;-78
2021/05/03 03:32:44;;;;;;;1.53;1.40;;;3.90;94.40;;;;;;5017475;28;21002;-78
2021/05/03 03:35:12;;;;;;;1.60;1.40;;;3.90;94.00;;;;;;5006809;28;20476;-78
2021/05/03 03:37:39;;;;;;;1.50;1.30;;;3.90;94.20;;;;;;5001898;28;20527;-77
2021/05/03 03:40:08;;;;;;;1.53;1.40;;;3.90;94.20;;;;;;5013025;28;20866;-77
2021/05/03 03:42:34;;;;;;;1.50;1.40;;;3.90;94.00;;;;;;5012399;28;21096;-76
2021/05/03 03:45:01;;;;;;;1.57;1.40;;;3.90;94.90;;;;;;5010623;28;20956;-79
2021/05/03 03:47:28;;;;;;;1.60;1.50;;;3.90;95.00;;;;;;4999701;28;20476;-78
2021/05/03 03:49:54;;;;;;;1.60;1.40;;;3.90;94.10;;;;;;5009518;28;20959;-78
2021/05/03 03:52:23;;;;;;;1.50;1.30;;;3.90;95.10;;;;;;4997727;28;20499;-78
2021/05/03 03:54:49;;;;;;;1.50;1.40;;;3.90;94.10;;;;;;5010070;28;20457;-78
2021/05/03 03:57:17;;;;;;;1.53;1.40;;;3.90;95.20;;;;;;4995403;28;20495;-79
2021/05/03 03:59:45;;;;;;;1.60;1.40;;;3.90;95.60;;;;;;5012018;28;20518;-78
2021/05/03 04:02:12;;;;;;;1.53;1.30;;;3.80;96.00;;;;;;5012770;28;20589;-77
2021/05/03 04:04:41;;;;;;;1.53;1.40;;;3.80;95.40;;;;;;5008117;28;20554;-77
2021/05/03 04:07:14;;;;;;;1.60;1.40;;;3.80;95.70;;;;;;4998384;28;20486;-77
2021/05/03 04:09:45;;;;;;;1.60;1.40;;;3.80;96.30;;;;;;5010632;28;20761;-77
2021/05/03 04:23:22;;;;;;;1.57;1.40;;;3.70;97.00;;;;;;5001854;28;20490;-78
2021/05/03 04:25:49;;;;;;;1.50;1.30;;;3.70;97.20;;;;;;5010192;28;20663;-79
2021/05/03 04:28:15;;;;;;;1.53;1.40;;;3.60;97.70;;;;;;5030422;28;20580;-78
2021/05/03 04:30:43;;;;;;;1.60;1.40;;;3.70;97.50;;;;;;5016669;28;20491;-79
2021/05/03 04:33:09;;;;;;;1.60;1.40;;;3.70;97.40;;;;;;5012759;28;20512;-79
2021/05/03 04:35:36;;;;;;;1.53;1.40;;;3.70;98.10;;;;;;5022022;28;20618;-79
2021/05/03 04:38:02;;;;;;;1.50;1.30;;;3.70;97.80;;;;;;5016465;28;20522;-79
2021/05/03 04:43:27;;;;;;;1.50;1.30;;;3.70;98.00;;;;;;5006417;28;20476;-78
2021/05/03 04:45:54;;;;;;;1.60;1.40;;;3.80;97.90;;;;;;5002923;28;21121;-80
2021/05/03 04:48:20;;;;;;;1.53;1.40;;;3.80;97.90;;;;;;5032561;28;20476;-79
2021/05/03 04:50:46;;;;;;;1.50;1.40;;;3.80;97.90;;;;;;5018953;28;20664;-78
2021/05/03 04:53:13;;;;;;;1.50;1.30;;;3.90;98.20;;;;;;5028135;28;20479;-79
2021/05/03 04:55:39;;;;;;;1.50;1.30;;;3.90;98.20;;;;;;5017048;28;20879;-78
2021/05/03 04:58:06;;;;;;;1.50;1.30;;;4.00;98.20;;;;;;5005369;28;20511;-78
2021/05/03 05:00:32;;;;;;;1.60;1.50;;;4.00;98.20;;;;;;5012365;28;21069;-77
2021/05/03 05:02:59;;;;;;;1.50;1.37;;;4.10;98.20;;;;;;4997532;28;20488;-77
2021/05/03 05:05:27;;;;;;;1.53;1.40;;;4.30;97.80;;;;;;5008606;28;20506;-78
2021/05/03 05:07:54;;;;;;;1.57;1.33;;;4.40;97.70;;;;;;5001790;28;20498;-78
2021/05/03 05:10:20;;;;;;;1.50;1.30;;;4.60;97.50;;;;;;5014772;28;20467;-77
2021/05/03 05:12:48;;;;;;;1.50;1.20;;;4.80;97.60;;;;;;4998198;28;20495;-78
2021/05/03 05:15:14;;;;;;;1.53;1.30;;;5.00;97.70;;;;;;5014834;28;20644;-78
2021/05/03 05:17:40;;;;;;;1.53;1.30;;;5.20;96.40;;;;;;5019764;28;20493;-78
2021/05/03 05:20:08;;;;;;;1.60;1.30;;;5.30;95.50;;;;;;5013727;28;20487;-77
2021/05/03 05:22:36;;;;;;;1.53;1.30;;;5.50;95.20;;;;;;5000759;28;21050;-78
2021/05/03 05:25:04;;;;;;;1.57;1.30;;;5.60;95.10;;;;;;5015809;28;20460;-78
2021/05/03 05:27:30;;;;;;;1.60;1.30;;;5.70;94.20;;;;;;5018767;28;21207;-79
2021/05/03 05:29:57;;;;;;;1.53;1.20;;;5.80;94.20;;;;;;5016685;28;20460;-78
2021/05/03 05:32:23;;;;;;;1.50;1.30;;;5.90;93.60;;;;;;5010835;28;20476;-78
2021/05/03 05:34:49;;;;;;;1.50;1.30;;;6.00;93.30;;;;;;5014566;28;20536;-79
2021/05/03 05:37:17;;;;;;;2.47;2.27;;;6.00;93.30;;;;;;5016001;28;20489;-78
2021/05/03 05:39:43;;;;;;;1.50;1.27;;;6.00;93.20;;;;;;5012107;28;20501;-79
2021/05/03 05:42:10;;;;;;;1.50;1.30;;;6.10;92.80;;;;;;5002091;28;20574;-79
2021/05/03 05:44:37;;;;;;;1.50;1.20;;;6.10;92.50;;;;;;5015028;28;20532;-80
2021/05/03 05:47:03;;;;;;;1.50;1.20;;;6.10;92.70;;;;;;5012701;28;20518;-80
2021/05/03 05:49:30;;;;;;;1.53;1.30;;;6.10;92.60;;;;;;5016913;28;21107;-79
2021/05/03 05:51:56;;;;;;;1.53;1.30;;;6.20;92.40;;;;;;5004956;28;20579;-79
2021/05/03 05:54:24;;;;;;;1.50;1.20;;;6.20;92.30;;;;;;5014886;28;20512;-79
2021/05/03 05:56:51;;;;;;;1.50;1.27;;;6.30;92.40;;;;;;5012463;28;20475;-78
2021/05/03 05:59:17;;;;;;;1.50;1.20;;;6.30;92.40;;;;;;5015288;28;20502;-78
2021/05/03 06:01:45;;;;;;;1.50;1.20;;;6.40;92.30;;;;;;5005491;28;20602;-78
2021/05/03 06:04:11;;;;;;;1.50;1.20;;;6.50;92.30;;;;;;5014981;28;20468;-79
2021/05/03 06:06:38;;;;;;;1.60;1.37;;;6.60;91.70;;;;;;5000218;28;20555;-79
2021/05/03 06:09:05;;;;;;;1.57;1.30;;;6.70;91.30;;;;;;5013321;28;20476;-78
2021/05/03 06:11:32;;;;;;;1.50;1.20;;;6.80;91.20;;;;;;5009942;28;20593;-78
2021/05/03 06:13:59;;;;;;;1.50;1.20;;;6.80;90.90;;;;;;5024815;28;20499;-80
2021/05/03 06:16:26;;;;;;;1.50;1.20;;;6.90;90.50;;;;;;5008007;28;20486;-79
2021/05/03 06:18:54;;;;;;;1.50;1.30;;;6.90;90.30;;;;;;5032140;28;20488;-78
2021/05/03 06:21:28;;;;;;;1.50;1.20;;;7.00;90.50;;;;;;5007933;28;20482;-79
2021/05/03 06:23:55;;;;;;;1.50;1.13;;;7.10;91.10;;;;;;5020934;28;21068;-78
2021/05/03 06:26:21;;;;;;;1.53;1.20;;;7.20;90.20;;;;;;5008917;28;20479;-79
2021/05/03 06:28:48;;;;;;;1.53;1.30;;;7.40;90.20;;;;;;5026061;28;20480;-79
2021/05/03 06:31:15;;;;;;;1.50;1.20;;;7.50;89.50;;;;;;5001776;28;20879;-80
2021/05/03 06:33:41;;;;;;;1.50;1.20;;;7.50;89.10;;;;;;5013878;28;20527;-78
2021/05/03 06:36:08;;;;;;;1.50;1.10;;;7.60;89.80;;;;;;5003127;28;20478;-80
2021/05/03 06:38:35;;;;;;;1.50;1.10;;;7.90;89.80;;;;;;5014526;28;20542;-80
2021/05/03 06:41:01;;;;;;;1.50;1.20;;;8.00;88.60;;;;;;4997245;28;20576;-80
2021/05/03 06:43:28;;;;;;;1.50;1.10;;;8.30;88.40;;;;;;5009217;28;20464;-79
2021/05/03 06:45:56;;;;;;;1.50;1.20;;;8.50;86.80;;;;;;5005493;28;20551;-79
2021/05/03 06:48:23;;;;;;;1.50;1.10;;;8.50;86.80;;;;;;5014704;28;20484;-79
2021/05/03 06:50:49;;;;;;;1.50;1.13;;;8.60;86.90;;;;;;5005757;28;20472;-80
2021/05/03 06:53:16;;;;;;;1.50;1.10;;;8.60;86.20;;;;;;5026772;28;20479;-80
2021/05/03 06:55:45;;;;;;;1.50;1.20;;;8.60;86.40;;;;;;5015071;28;20467;-81
2021/05/03 06:58:12;;;;;;;1.50;1.10;;;8.60;86.30;;;;;;5001303;28;20484;-80
2021/05/03 07:00:40;;;;;;;1.60;1.30;;;8.70;86.50;;;;;;5015842;28;20538;-79
2021/05/03 07:03:08;;;;;;;1.50;1.10;;;8.90;87.20;;;;;;5010127;28;20493;-80
2021/05/03 07:05:34;;;;;;;1.50;1.20;;;9.20;86.60;;;;;;5015179;28;20463;-81
2021/05/03 07:08:01;;;;;;;1.50;1.10;;;9.60;85.70;;;;;;5019045;28;20622;-81
2021/05/03 07:10:27;;;;;;;1.50;1.10;;;10.00;83.80;;;;;;5014702;28;20529;-81
2021/05/03 07:12:54;;;;;;;1.50;1.10;;;10.10;82.50;;;;;;5008233;28;20487;-81
2021/05/03 07:15:20;;;;;;;1.50;1.10;;;10.30;82.90;;;;;;5010925;28;20927;-81
2021/05/03 07:17:47;;;;;;;1.50;1.10;;;10.50;81.70;;;;;;5026668;28;20487;-81
2021/05/03 07:20:15;;;;;;;1.50;1.00;;;10.70;81.10;;;;;;5011641;28;21103;-80
2021/05/03 07:22:42;;;;;;;1.50;1.10;;;10.80;81.20;;;;;;5001723;28;20529;-80
2021/05/03 07:25:11;;;;;;;1.50;1.10;;;11.10;80.70;;;;;;5015911;28;20452;-80
2021/05/03 07:27:38;;;;;;;1.50;1.00;;;11.50;80.40;;;;;;5013856;28;20487;-81
2021/05/03 07:30:05;;;;;;;1.50;1.00;;;11.90;79.40;;;;;;5011150;28;20467;-80
2021/05/03 07:32:31;;;;;;;1.50;1.00;;;12.20;76.70;;;;;;5004930;28;20480;-81
2021/05/03 07:34:58;;;;;;;1.50;1.00;;;12.30;76.60;;;;;;5010585;28;20473;-80
2021/05/03 07:37:25;;;;;;;1.50;1.00;;;12.50;75.40;;;;;;5001654;28;20514;-80
2021/05/03 07:39:51;;;;;;;1.50;1.10;;;12.70;75.80;;;;;;5014085;28;20878;-81
2021/05/03 07:42:17;;;;;;;1.50;1.00;;;12.90;74.90;;;;;;5012779;28;20484;-80
2021/05/03 07:44:44;;;;;;;1.50;0.93;;;13.10;73.40;;;;;;5013956;28;20460;-80
2021/05/03 07:47:10;;;;;;;1.50;0.90;;;13.30;72.50;;;;;;5003243;28;20484;-81
2021/05/03 07:49:39;;;;;;;1.50;1.00;;;13.50;72.60;;;;;;5014500;28;20464;-80
2021/05/03 07:52:06;;;;;;;1.50;1.10;;;13.70;72.70;;;;;;5002978;28;20490;-80
2021/05/03 07:54:34;;;;;;;1.47;1.00;;;13.80;71.70;;;;;;5006713;28;20460;-82
2021/05/03 07:57:00;;;;;;;1.50;0.90;;;13.80;71.10;;;;;;5002308;28;20488;-81
2021/05/03 07:59:27;;;;;;;1.50;1.00;;;13.80;72.10;;;;;;5010172;28;20488;-80
2021/05/03 08:01:53;;;;;;;1.50;0.90;;;13.90;71.40;;;;;;5008910;28;20483;-81
2021/05/03 08:04:20;;;;;;;1.50;0.90;;;14.00;71.10;;;;;;5018771;28;20518;-81
2021/05/03 08:06:47;;;;;;;1.50;0.90;;;14.20;70.60;;;;;;5012192;28;20513;-79
2021/05/03 08:09:13;;;;;;;1.50;1.10;;;14.30;68.80;;;;;;5016083;28;20567;-81
2021/05/03 08:11:44;;;;;;;1.50;0.90;;;14.50;68.40;;;;;;5002872;28;20543;-80
2021/05/03 08:14:12;;;;;;;1.50;0.90;;;14.60;69.50;;;;;;5011265;28;20521;-79
2021/05/03 08:16:39;;;;;;;1.50;0.90;;;14.90;68.80;;;;;;5001250;28;20495;-80
2021/05/03 08:19:06;;;;;;;1.50;1.00;;;15.10;66.60;;;;;;5006430;28;20933;-80
2021/05/03 08:21:32;;;;;;;1.50;1.00;;;15.30;65.60;;;;;;5002980;28;20575;-80
2021/05/03 08:23:59;;;;;;;1.50;1.00;;;15.50;64.60;;;;;;5015060;28;20462;-79
2021/05/03 08:26:25;;;;;;;1.50;0.90;;;15.60;64.50;;;;;;5009737;28;21073;-79
2021/05/03 08:28:53;;;;;;;1.50;0.90;;;15.70;63.60;;;;;;5012069;28;20644;-80
2021/05/03 08:31:19;;;;;;;1.50;0.90;;;15.80;63.30;;;;;;4999527;28;20503;-79
2021/05/03 08:33:45;;;;;;;1.50;1.00;;;15.90;63.60;;;;;;5012225;28;20491;-80
2021/05/03 08:36:12;;;;;;;1.50;0.90;;;16.10;63.80;;;;;;5006416;28;20495;-81
2021/05/03 08:38:38;;;;;;;1.50;0.90;;;16.10;63.50;;;;;;5017348;28;20491;-81
2021/05/03 08:41:05;;;;;;;1.50;0.90;;;16.20;63.80;;;;;;5004759;28;20851;-81
2021/05/03 08:43:33;;;;;;;1.50;0.90;;;16.40;63.70;;;;;;5013598;28;20467;-79
2021/05/03 08:46:03;;;;;;;1.50;0.90;;;16.60;63.00;;;;;;5004065;28;20970;-81
2021/05/03 08:48:36;;;;;;;1.50;0.90;;;16.50;63.00;;;;;;5024027;28;20484;-80
2021/05/03 08:51:11;;;;;;;1.50;0.90;;;16.60;62.90;;;;;;4999996;28;20468;-80
2021/05/03 08:53:41;;;;;;;1.50;1.00;;;16.60;63.10;;;;;;5010469;28;20881;-79
2021/05/03 08:56:08;;;;;;;1.87;1.50;;;16.60;62.30;;;;;;4997183;28;20507;-80
2021/05/03 08:58:37;;;;;;;1.50;0.90;;;16.70;62.70;;;;;;5016331;28;20494;-79
2021/05/03 09:01:05;;;;;;;1.50;1.00;;;16.90;62.40;;;;;;5004714;28;20492;-79
2021/05/03 09:03:33;;;;;;;1.40;0.90;;;16.90;61.00;;;;;;5009051;28;20464;-80
2021/05/03 09:06:03;;;;;;;1.50;0.90;;;16.80;61.20;;;;;;5006891;28;20526;-80
2021/05/03 09:08:31;;;;;;;1.47;0.90;;;16.70;62.30;;;;;;5039066;28;20522;-80
2021/05/03 09:10:58;;;;;;;1.47;0.90;;;16.60;62.10;;;;;;5006809;28;20563;-80
2021/05/03 09:13:29;;;;;;;1.50;1.00;;;16.70;62.30;;;;;;5035415;28;20522;-79
2021/05/03 09:16:17;;;;;;;1.40;0.90;;;16.80;61.10;;;;;;5006748;28;20897;-80
2021/05/03 09:18:44;;;;;;;1.50;1.00;;;17.00;60.90;;;;;;5025392;28;21033;-81
2021/05/03 09:21:21;;;;;;;1.50;0.90;;;17.30;60.50;;;;;;5000005;28;20472;-81
2021/05/03 09:24:02;;;;;;;1.47;0.90;;;17.50;60.30;;;;;;5013497;28;20471;-77
2021/05/03 09:26:40;;;;;;;1.50;1.00;;;17.50;59.20;;;;;;5009271;28;20969;-79
2021/05/03 09:29:28;;;;;;;1.50;0.90;;;17.40;60.00;;;;;;5024720;28;20480;-79
2021/05/03 09:32:06;;;;;;;1.50;1.00;;;17.30;60.30;;;;;;5001030;28;20516;-78
2021/05/03 09:34:34;;;;;;;1.43;0.90;;;17.20;59.80;;;;;;5012519;28;20551;-78
2021/05/03 09:37:20;;;;;;;1.47;0.90;;;17.30;59.50;;;;;;5014913;28;20487;-80
2021/05/03 09:40:03;;;;;;;1.50;1.00;;;17.20;59.20;;;;;;5010897;28;20506;-79
2021/05/03 09:42:46;;;;;;;1.50;1.00;;;17.40;60.20;;;;;;5002235;28;20981;-79
2021/05/03 09:45:15;;;;;;;1.50;1.00;;;17.60;59.30;;;;;;5014501;28;20955;-79
2021/05/03 09:47:43;;;;;;;1.50;0.90;;;17.80;58.40;;;;;;5019917;28;21005;-78
2021/05/03 09:50:12;;;;;;;1.50;0.90;;;18.00;57.90;;;;;;5008410;28;20507;-79
2021/05/03 09:52:39;;;;;;;1.50;1.00;;;17.90;57.80;;;;;;5002322;28;20479;-77
2021/05/03 09:55:31;;;;;;;1.47;0.90;;;17.80;57.90;;;;;;5013715;28;20490;-79
2021/05/03 09:58:22;;;;;;;1.50;0.90;;;17.80;58.50;;;;;;5016898;28;20578;-78
2021/05/03 10:00:50;;;;;;;1.50;0.90;;;18.00;58.80;;;;;;4995619;28;20504;-80
2021/05/03 10:03:35;;;;;;;1.50;0.90;;;18.20;58.50;;;;;;5012531;28;20464;-78
2021/05/03 10:06:04;;;;;;;1.50;0.90;;;18.40;57.30;;;;;;4994305;28;20468;-78
2021/05/03 10:08:30;;;;;;;1.50;1.00;;;18.50;59.00;;;;;;5020562;28;20579;-78
2021/05/03 10:10:59;;;;;;;1.50;0.90;;;18.70;57.50;;;;;;5003878;28;20539;-78
2021/05/03 10:13:27;;;;;;;1.50;0.90;;;18.80;56.90;;;;;;5028947;28;20831;-79
2021/05/03 10:15:57;;;;;;;1.50;0.97;;;18.90;55.40;;;;;;4999435;28;20547;-80
2021/05/03 10:18:25;;;;;;;1.50;0.90;;;18.90;55.60;;;;;;5009058;28;20498;-79
2021/05/03 10:20:53;;;;;;;1.50;0.90;;;18.80;56.60;;;;;;5003560;28;20558;-80
2021/05/03 10:23:21;;;;;;;1.50;0.90;;;18.80;56.20;;;;;;5021365;28;20507;-79
2021/05/03 10:25:49;;;;;;;1.50;0.90;;;18.60;55.50;;;;;;5003082;28;20464;-79
2021/05/03 10:28:15;;;;;;;1.50;0.90;;;18.70;57.10;;;;;;5026910;28;20543;-78
2021/05/03 10:30:44;;;;;;;1.50;1.00;;;18.90;56.90;;;;;;5018715;28;20824;-79
2021/05/03 10:33:33;;;;;;;1.50;0.90;;;19.20;57.60;;;;;;5003070;28;20468;-76
2021/05/03 10:36:03;;;;;;;1.47;0.90;;;19.10;54.60;;;;;;5006015;28;20456;-78
2021/05/03 10:38:34;;;;;;;1.50;0.90;;;19.20;54.60;;;;;;5017576;28;20559;-78
2021/05/03 10:41:02;;;;;;;1.47;0.90;;;19.20;53.90;;;;;;5007989;28;20476;-82
2021/05/03 10:43:38;;;;;;;1.50;0.90;;;19.20;54.90;;;;;;5036162;28;20558;-78
2021/05/03 10:46:13;;;;;;;1.60;1.20;;;19.20;54.90;;;;;;5009407;28;21024;-81
2021/05/03 10:48:54;;;;;;;1.47;0.90;;;19.10;55.30;;;;;;5018186;28;20475;-81
2021/05/03 10:51:50;;;;;;;1.50;0.90;;;19.00;56.40;;;;;;5015557;28;20467;-79
2021/05/03 10:54:51;;;;;;;1.43;0.90;;;19.10;55.80;;;;;;5022419;28;20464;-82
2021/05/03 10:57:38;;;;;;;1.50;0.90;;;19.40;55.90;;;;;;5006379;28;20479;-79
2021/05/03 11:00:31;;;;;;;1.50;0.90;;;19.70;53.90;;;;;;5022388;28;20510;-79
2021/05/03 11:02:58;;;;;;;1.50;0.90;;;19.50;53.30;;;;;;5023639;28;20502;-81
2021/05/03 11:05:41;;;;;;;1.50;0.90;;;19.30;54.50;;;;;;5020786;28;20524;-79
2021/05/03 11:08:30;;;;;;;1.47;0.90;;;19.30;53.50;;;;;;5011472;28;20618;-82
2021/05/03 11:11:05;;;;;;;1.50;0.90;;;19.10;55.00;;;;;;4999678;28;20478;-81
2021/05/03 11:13:58;;;;;;;1.47;0.83;;;19.20;54.20;;;;;;5027486;28;20539;-83
2021/05/03 11:16:53;;;;;;;1.50;0.90;;;19.20;55.00;;;;;;5009921;28;20542;-82
2021/05/03 11:19:45;;;;;;;1.50;0.90;;;19.10;56.00;;;;;;5021868;28;20495;-79
2021/05/03 11:22:16;;;;;;;1.50;0.90;;;19.00;54.90;;;;;;5006963;28;20520;-80
2021/05/03 11:24:50;;;;;;;1.50;0.90;;;18.80;54.80;;;;;;5019850;28;20975;-82
2021/05/03 11:27:26;;;;;;;1.77;1.50;;;18.50;56.20;;;;;;5022180;28;21163;-80
2021/05/03 11:29:59;;;;;;;1.50;0.90;;;18.40;56.90;;;;;;5022565;28;20795;-82
2021/05/03 11:32:32;;;;;;;1.50;0.90;;;18.30;57.80;;;;;;5010680;28;20531;-81
2021/05/03 11:35:05;;;;;;;1.50;0.90;;;18.10;57.80;;;;;;5017929;28;20456;-76
2021/05/03 11:37:42;;;;;;;1.50;0.90;;;18.00;57.10;;;;;;5012385;28;20487;-81
2021/05/03 11:40:18;;;;;;;1.50;0.90;;;17.80;56.50;;;;;;5015121;28;20463;-79
2021/05/03 11:45:30;;;;;;;1.43;0.90;;;17.40;57.30;;;;;;5014756;28;20856;-80
2021/05/03 11:47:57;;;;;;;1.50;1.00;;;17.30;57.30;;;;;;5016867;28;20486;-82
2021/05/03 11:50:25;;;;;;;1.60;1.10;;;17.10;57.30;;;;;;5016242;28;20491;-81
2021/05/03 11:52:52;;;;;;;1.50;0.90;;;16.90;57.90;;;;;;5021424;28;20518;-80
2021/05/03 11:55:22;;;;;;;1.50;1.10;;;16.90;58.60;;;;;;5016311;28;20966;-79
2021/05/03 11:57:50;;;;;;;1.50;0.90;;;16.90;59.10;;;;;;5011762;28;20494;-80
2021/05/03 12:00:19;;;;;;;1.50;0.90;;;16.80;59.00;;;;;;5009399;28;20468;-81
2021/05/03 12:02:46;;;;;;;1.47;0.97;;;16.80;59.30;;;;;;5016754;28;20483;-80
2021/05/03 12:05:15;;;;;;;1.47;1.00;;;16.70;60.10;;;;;;5013093;28;20464;-81
2021/05/03 12:07:42;;;;;;;1.47;0.90;;;16.70;60.90;;;;;;5020985;28;20498;-79
2021/05/03 12:10:11;;;;;;;1.50;1.07;;;16.80;59.80;;;;;;5011180;28;20499;-80
2021/05/03 12:12:39;;;;;;;1.50;1.00;;;16.80;57.80;;;;;;5020461;28;20614;-82
2021/05/03 12:15:07;;;;;;;1.40;0.90;;;16.90;57.70;;;;;;5016894;28;20649;-82
2021/05/03 12:17:36;;;;;;;1.43;0.90;;;17.20;58.00;;;;;;5016586;28;20475;-81
2021/05/03 12:20:09;;;;;;;1.50;1.10;;;17.50;59.00;;;;;;5017276;28;20463;-79
2021/05/03 12:22:37;;;;;;;1.50;0.90;;;17.60;57.60;;;;;;5019726;28;20485;-78
2021/05/03 12:25:07;;;;;;;1.50;1.00;;;17.70;58.70;;;;;;5010576;28;20515;-80
2021/05/03 12:27:34;;;;;;;1.47;0.90;;;18.00;57.50;;;;;;5001834;28;20936;-80
2021/05/03 12:30:03;;;;;;;1.40;0.90;;;18.10;57.30;;;;;;5013447;28;20629;-81
2021/05/03 12:32:37;;;;;;;1.50;0.90;;;18.10;56.90;;;;;;5018282;28;20842;-81
2021/05/03 12:35:08;;;;;;;1.47;0.90;;;18.00;57.10;;;;;;5016284;28;20962;-82
2021/05/03 12:37:35;;;;;;;1.43;0.90;;;17.90;57.40;;;;;;5022949;28;20933;-79
2021/05/03 12:40:11;;;;;;;1.40;0.90;;;17.80;56.90;;;;;;5020403;28;20455;-82
2021/05/03 12:42:44;;;;;;;3.10;1.67;;;17.50;58.10;;;;;;5015088;28;20493;-84
2021/05/03 12:45:32;;;;;;;1.50;1.00;;;17.40;57.90;;;;;;5014657;28;20506;-79
2021/05/03 12:48:05;;;;;;;1.47;0.90;;;17.20;58.70;;;;;;5009390;28;20495;-81
2021/05/03 12:50:46;;;;;;;1.47;0.90;;;17.20;58.50;;;;;;5015892;28;20487;-81
2021/05/03 12:53:19;;;;;;;1.50;0.90;;;17.20;57.80;;;;;;4999297;28;20480;-81
2021/05/03 12:58:36;;;;;;;1.47;0.90;;;17.10;58.10;;;;;;5012834;28;20502;-81
2021/05/03 13:01:26;;;;;;;1.47;0.90;;;17.20;57.50;;;;;;5003481;28;20556;-81
2021/05/03 13:03:59;;;;;;;1.43;0.90;;;17.30;58.30;;;;;;5014746;28;20453;-83
2021/05/03 13:06:36;;;;;;;1.43;0.90;;;17.50;58.70;;;;;;5014939;28;20479;-80
2021/05/03 13:09:31;;;;;;;1.50;0.90;;;17.70;57.30;;;;;;5017836;28;20500;-80
2021/05/03 13:29:36;;;;;;;1.50;1.00;;;17.90;55.50;;;;;;5019521;28;20488;-80
2021/05/03 13:32:03;;;;;;;1.50;1.00;;;18.20;54.10;;;;;;5012717;28;20482;-81
2021/05/03 13:34:30;;;;;;;1.50;0.90;;;18.50;55.00;;;;;;5017859;28;20464;-78
2021/05/03 13:36:57;;;;;;;1.47;0.90;;;18.60;53.60;;;;;;4999484;28;20986;-79
2021/05/03 13:39:23;;;;;;;1.50;0.90;;;18.70;54.20;;;;;;5012951;28;21284;-80
2021/05/03 13:41:50;;;;;;;1.47;0.90;;;18.70;53.90;;;;;;5018327;28;20557;-80